sensor_id;sensor_type;location;lat;lon;timestamp;P1;durP1;ratioP1;P2;durP2;ratioP2
21243;SDS011;10780;50.942;4.028;2022-11-20T00:01:18;58.00;;;27.00;;
21243;SDS011;10780;50.942;4.028;2022-11-20T00:03:45;54.60;;;25.48;;
21243;SDS011;10780;50.942;4.028;2022-11-20T00:06:12;54.83;;;25.45;;
21243;SDS011;10780;50.942;4.028;2022-11-20T00:08:39;55.17;;;26.05;;
21243;SDS011;10780;50.942;4.028;2022-11-20T00:13:32;62.35;;;26.58;;
21243;SDS011;10780;50.942;4.028;2022-11-20T00:15:59;54.13;;;25.10;;
21243;SDS011;10780;50.942;4.028;2022-11-20T00:18:25;57.97;;;25.45;;
21243;SDS011;10780;50.942;4.028;2022-11-20T00:20:52;58.47;;;27.08;;
21243;SDS011;10780;50.942;4.028;2022-11-20T00:23:18;57.13;;;26.92;;
21243;SDS011;10780;50.942;4.028;2022-11-20T00:25:43;57.10;;;26.95;;
21243;SDS011;10780;50.942;4.028;2022-11-20T00:28:09;59.13;;;26.42;;
21243;SDS011;10780;50.942;4.028;2022-11-20T00:30:34;56.40;;;26.20;;
21243;SDS011;10780;50.942;4.028;2022-11-20T00:33:00;52.08;;;25.70;;
21243;SDS011;10780;50.942;4.028;2022-11-20T00:35:26;53.70;;;26.50;;
21243;SDS011;10780;50.942;4.028;2022-11-20T00:37:51;51.67;;;24.98;;
21243;SDS011;10780;50.942;4.028;2022-11-20T00:40:17;57.53;;;26.08;;
21243;SDS011;10780;50.942;4.028;2022-11-20T00:42:42;54.10;;;26.23;;
21243;SDS011;10780;50.942;4.028;2022-11-20T00:45:08;53.05;;;25.27;;
21243;SDS011;10780;50.942;4.028;2022-11-20T00:47:34;51.80;;;24.30;;
21243;SDS011;10780;50.942;4.028;2022-11-20T00:49:59;52.72;;;24.75;;
21243;SDS011;10780;50.942;4.028;2022-11-20T00:52:25;47.80;;;24.92;;
21243;SDS011;10780;50.942;4.028;2022-11-20T00:54:50;48.50;;;24.15;;
21243;SDS011;10780;50.942;4.028;2022-11-20T00:57:16;49.50;;;24.00;;
21243;SDS011;10780;50.942;4.028;2022-11-20T00:59:41;58.20;;;27.80;;
21243;SDS011;10780;50.942;4.028;2022-11-20T01:02:07;58.90;;;27.40;;
21243;SDS011;10780;50.942;4.028;2022-11-20T01:04:32;58.08;;;26.75;;
21243;SDS011;10780;50.942;4.028;2022-11-20T01:06:58;57.70;;;26.85;;
21243;SDS011;10780;50.942;4.028;2022-11-20T01:09:24;57.28;;;27.42;;
21243;SDS011;10780;50.942;4.028;2022-11-20T01:11:49;56.95;;;27.95;;
21243;SDS011;10780;50.942;4.028;2022-11-20T01:14:18;56.80;;;25.60;;
21243;SDS011;10780;50.942;4.028;2022-11-20T01:16:45;54.92;;;25.88;;
21243;SDS011;10780;50.942;4.028;2022-11-20T01:19:14;57.80;;;28.77;;
21243;SDS011;10780;50.942;4.028;2022-11-20T01:21:42;58.45;;;29.17;;
21243;SDS011;10780;50.942;4.028;2022-11-20T01:24:13;55.15;;;26.42;;
21243;SDS011;10780;50.942;4.028;2022-11-20T01:26:41;52.75;;;25.85;;
21243;SDS011;10780;50.942;4.028;2022-11-20T01:29:13;54.10;;;26.38;;
21243;SDS011;10780;50.942;4.028;2022-11-20T01:31:40;55.30;;;26.52;;
21243;SDS011;10780;50.942;4.028;2022-11-20T01:34:08;52.20;;;25.30;;
21243;SDS011;10780;50.942;4.028;2022-11-20T01:36:36;54.95;;;25.85;;
21243;SDS011;10780;50.942;4.028;2022-11-20T01:39:04;51.67;;;26.35;;
21243;SDS011;10780;50.942;4.028;2022-11-20T01:41:31;55.65;;;26.30;;
21243;SDS011;10780;50.942;4.028;2022-11-20T01:44:18;53.92;;;25.27;;
21243;SDS011;10780;50.942;4.028;2022-11-20T01:49:33;58.47;;;28.63;;
21243;SDS011;10780;50.942;4.028;2022-11-20T01:52:12;56.30;;;27.15;;
21243;SDS011;10780;50.942;4.028;2022-11-20T01:54:48;60.70;;;27.25;;
21243;SDS011;10780;50.942;4.028;2022-11-20T01:57:17;55.03;;;26.30;;
21243;SDS011;10780;50.942;4.028;2022-11-20T01:59:46;52.28;;;27.58;;
21243;SDS011;10780;50.942;4.028;2022-11-20T02:02:17;47.70;;;25.27;;
21243;SDS011;10780;50.942;4.028;2022-11-20T02:04:43;50.75;;;25.83;;
21243;SDS011;10780;50.942;4.028;2022-11-20T02:07:09;54.17;;;26.25;;
21243;SDS011;10780;50.942;4.028;2022-11-20T02:09:36;50.75;;;25.42;;
21243;SDS011;10780;50.942;4.028;2022-11-20T02:12:01;56.97;;;25.55;;
21243;SDS011;10780;50.942;4.028;2022-11-20T02:14:28;59.25;;;26.92;;
21243;SDS011;10780;50.942;4.028;2022-11-20T02:16:54;61.28;;;27.88;;
21243;SDS011;10780;50.942;4.028;2022-11-20T02:24:31;57.55;;;26.25;;
21243;SDS011;10780;50.942;4.028;2022-11-20T02:26:59;62.75;;;27.30;;
21243;SDS011;10780;50.942;4.028;2022-11-20T02:29:49;56.60;;;27.05;;
21243;SDS011;10780;50.942;4.028;2022-11-20T02:32:30;61.78;;;27.30;;
21243;SDS011;10780;50.942;4.028;2022-11-20T02:34:57;59.05;;;27.50;;
21243;SDS011;10780;50.942;4.028;2022-11-20T02:37:32;63.05;;;27.95;;
21243;SDS011;10780;50.942;4.028;2022-11-20T02:40:01;64.18;;;27.08;;
21243;SDS011;10780;50.942;4.028;2022-11-20T02:42:27;51.60;;;26.00;;
21243;SDS011;10780;50.942;4.028;2022-11-20T02:44:52;54.35;;;26.95;;
21243;SDS011;10780;50.942;4.028;2022-11-20T02:47:18;54.20;;;26.15;;
21243;SDS011;10780;50.942;4.028;2022-11-20T02:49:43;58.10;;;26.70;;
21243;SDS011;10780;50.942;4.028;2022-11-20T02:52:09;57.03;;;25.85;;
21243;SDS011;10780;50.942;4.028;2022-11-20T02:54:34;52.47;;;26.08;;
21243;SDS011;10780;50.942;4.028;2022-11-20T02:57:00;51.83;;;25.23;;
21243;SDS011;10780;50.942;4.028;2022-11-20T02:59:25;54.92;;;25.08;;
21243;SDS011;10780;50.942;4.028;2022-11-20T03:01:51;54.88;;;24.80;;
21243;SDS011;10780;50.942;4.028;2022-11-20T03:04:17;53.95;;;24.33;;
21243;SDS011;10780;50.942;4.028;2022-11-20T03:06:42;53.75;;;26.25;;
21243;SDS011;10780;50.942;4.028;2022-11-20T03:09:08;60.65;;;26.08;;
21243;SDS011;10780;50.942;4.028;2022-11-20T03:11:34;49.08;;;24.98;;
21243;SDS011;10780;50.942;4.028;2022-11-20T03:14:05;53.90;;;24.33;;
21243;SDS011;10780;50.942;4.028;2022-11-20T03:16:31;54.05;;;25.83;;
21243;SDS011;10780;50.942;4.028;2022-11-20T03:18:57;51.20;;;24.13;;
21243;SDS011;10780;50.942;4.028;2022-11-20T03:21:24;48.47;;;24.50;;
21243;SDS011;10780;50.942;4.028;2022-11-20T03:23:49;54.72;;;25.15;;
21243;SDS011;10780;50.942;4.028;2022-11-20T03:26:16;49.13;;;24.63;;
21243;SDS011;10780;50.942;4.028;2022-11-20T03:28:47;62.35;;;25.10;;
21243;SDS011;10780;50.942;4.028;2022-11-20T03:31:16;48.05;;;24.52;;
21243;SDS011;10780;50.942;4.028;2022-11-20T03:33:43;50.67;;;24.63;;
21243;SDS011;10780;50.942;4.028;2022-11-20T03:36:10;58.88;;;25.83;;
21243;SDS011;10780;50.942;4.028;2022-11-20T03:38:37;49.28;;;23.85;;
21243;SDS011;10780;50.942;4.028;2022-11-20T03:41:07;52.08;;;24.55;;
21243;SDS011;10780;50.942;4.028;2022-11-20T03:43:34;54.55;;;25.45;;
21243;SDS011;10780;50.942;4.028;2022-11-20T03:46:01;53.88;;;25.08;;
21243;SDS011;10780;50.942;4.028;2022-11-20T03:48:27;52.30;;;25.27;;
21243;SDS011;10780;50.942;4.028;2022-11-20T03:50:53;56.50;;;27.75;;
21243;SDS011;10780;50.942;4.028;2022-11-20T03:53:43;56.53;;;26.02;;
21243;SDS011;10780;50.942;4.028;2022-11-20T03:56:10;54.38;;;26.38;;
21243;SDS011;10780;50.942;4.028;2022-11-20T03:58:37;59.33;;;26.33;;
21243;SDS011;10780;50.942;4.028;2022-11-20T04:01:07;59.17;;;26.42;;
21243;SDS011;10780;50.942;4.028;2022-11-20T04:03:35;64.25;;;27.42;;
21243;SDS011;10780;50.942;4.028;2022-11-20T04:06:02;52.75;;;25.17;;
21243;SDS011;10780;50.942;4.028;2022-11-20T04:08:29;56.35;;;26.77;;
21243;SDS011;10780;50.942;4.028;2022-11-20T04:10:55;51.20;;;26.05;;
21243;SDS011;10780;50.942;4.028;2022-11-20T04:13:21;56.22;;;25.95;;
21243;SDS011;10780;50.942;4.028;2022-11-20T04:15:46;51.42;;;25.15;;
21243;SDS011;10780;50.942;4.028;2022-11-20T04:18:12;57.08;;;25.48;;
21243;SDS011;10780;50.942;4.028;2022-11-20T04:20:38;50.67;;;24.45;;
21243;SDS011;10780;50.942;4.028;2022-11-20T04:23:03;55.63;;;26.45;;
21243;SDS011;10780;50.942;4.028;2022-11-20T04:25:29;51.40;;;25.95;;
21243;SDS011;10780;50.942;4.028;2022-11-20T04:27:54;48.95;;;24.55;;
21243;SDS011;10780;50.942;4.028;2022-11-20T04:30:20;54.45;;;24.55;;
21243;SDS011;10780;50.942;4.028;2022-11-20T04:32:45;54.65;;;26.20;;
21243;SDS011;10780;50.942;4.028;2022-11-20T04:35:11;53.75;;;24.40;;
21243;SDS011;10780;50.942;4.028;2022-11-20T04:37:36;54.97;;;25.58;;
21243;SDS011;10780;50.942;4.028;2022-11-20T04:40:02;52.58;;;24.85;;
21243;SDS011;10780;50.942;4.028;2022-11-20T04:42:28;58.75;;;26.85;;
21243;SDS011;10780;50.942;4.028;2022-11-20T04:44:54;54.17;;;25.00;;
21243;SDS011;10780;50.942;4.028;2022-11-20T04:47:20;59.40;;;26.70;;
21243;SDS011;10780;50.942;4.028;2022-11-20T04:49:46;55.92;;;25.80;;
21243;SDS011;10780;50.942;4.028;2022-11-20T04:52:12;53.03;;;25.75;;
21243;SDS011;10780;50.942;4.028;2022-11-20T04:54:37;51.88;;;24.58;;
21243;SDS011;10780;50.942;4.028;2022-11-20T04:57:03;57.35;;;25.67;;
21243;SDS011;10780;50.942;4.028;2022-11-20T04:59:28;55.47;;;26.13;;
21243;SDS011;10780;50.942;4.028;2022-11-20T05:01:54;54.83;;;25.00;;
21243;SDS011;10780;50.942;4.028;2022-11-20T05:04:20;58.65;;;25.63;;
21243;SDS011;10780;50.942;4.028;2022-11-20T05:06:45;60.47;;;26.52;;
21243;SDS011;10780;50.942;4.028;2022-11-20T05:09:11;57.85;;;26.10;;
21243;SDS011;10780;50.942;4.028;2022-11-20T05:11:37;53.58;;;25.10;;
21243;SDS011;10780;50.942;4.028;2022-11-20T05:14:03;53.92;;;25.77;;
21243;SDS011;10780;50.942;4.028;2022-11-20T05:16:29;58.70;;;25.58;;
21243;SDS011;10780;50.942;4.028;2022-11-20T05:18:54;53.65;;;24.77;;
21243;SDS011;10780;50.942;4.028;2022-11-20T05:21:20;58.35;;;25.30;;
21243;SDS011;10780;50.942;4.028;2022-11-20T05:23:47;54.67;;;25.20;;
21243;SDS011;10780;50.942;4.028;2022-11-20T05:26:16;56.47;;;25.52;;
21243;SDS011;10780;50.942;4.028;2022-11-20T05:28:44;50.53;;;24.30;;
21243;SDS011;10780;50.942;4.028;2022-11-20T05:31:11;62.33;;;27.27;;
21243;SDS011;10780;50.942;4.028;2022-11-20T05:33:41;62.92;;;26.40;;
21243;SDS011;10780;50.942;4.028;2022-11-20T05:36:08;54.45;;;25.15;;
21243;SDS011;10780;50.942;4.028;2022-11-20T05:38:35;61.45;;;25.02;;
21243;SDS011;10780;50.942;4.028;2022-11-20T05:41:05;55.85;;;25.88;;
21243;SDS011;10780;50.942;4.028;2022-11-20T05:43:32;59.92;;;25.25;;
21243;SDS011;10780;50.942;4.028;2022-11-20T05:45:58;59.85;;;25.95;;
21243;SDS011;10780;50.942;4.028;2022-11-20T05:48:24;60.92;;;26.45;;
21243;SDS011;10780;50.942;4.028;2022-11-20T05:50:50;61.05;;;26.80;;
21243;SDS011;10780;50.942;4.028;2022-11-20T05:53:15;64.20;;;27.38;;
21243;SDS011;10780;50.942;4.028;2022-11-20T05:55:41;56.53;;;25.88;;
21243;SDS011;10780;50.942;4.028;2022-11-20T05:58:07;58.80;;;25.33;;
21243;SDS011;10780;50.942;4.028;2022-11-20T06:00:32;57.15;;;25.73;;
21243;SDS011;10780;50.942;4.028;2022-11-20T06:02:58;59.95;;;27.05;;
21243;SDS011;10780;50.942;4.028;2022-11-20T06:05:23;58.20;;;24.73;;
21243;SDS011;10780;50.942;4.028;2022-11-20T06:07:49;67.55;;;27.30;;
21243;SDS011;10780;50.942;4.028;2022-11-20T06:10:14;67.10;;;27.90;;
21243;SDS011;10780;50.942;4.028;2022-11-20T06:12:40;65.57;;;26.60;;
21243;SDS011;10780;50.942;4.028;2022-11-20T06:15:06;67.22;;;26.42;;
21243;SDS011;10780;50.942;4.028;2022-11-20T06:17:32;65.95;;;27.42;;
21243;SDS011;10780;50.942;4.028;2022-11-20T06:19:57;67.60;;;26.85;;
21243;SDS011;10780;50.942;4.028;2022-11-20T06:22:23;71.93;;;26.63;;
21243;SDS011;10780;50.942;4.028;2022-11-20T06:24:48;67.10;;;26.80;;
21243;SDS011;10780;50.942;4.028;2022-11-20T06:27:14;65.65;;;27.75;;
21243;SDS011;10780;50.942;4.028;2022-11-20T06:29:40;68.55;;;27.23;;
21243;SDS011;10780;50.942;4.028;2022-11-20T06:32:06;68.95;;;28.25;;
21243;SDS011;10780;50.942;4.028;2022-11-20T06:34:31;65.13;;;27.00;;
21243;SDS011;10780;50.942;4.028;2022-11-20T06:36:57;68.55;;;27.00;;
21243;SDS011;10780;50.942;4.028;2022-11-20T06:39:22;63.92;;;26.00;;
21243;SDS011;10780;50.942;4.028;2022-11-20T06:41:48;66.75;;;27.85;;
21243;SDS011;10780;50.942;4.028;2022-11-20T06:44:13;72.00;;;28.42;;
21243;SDS011;10780;50.942;4.028;2022-11-20T06:46:39;60.63;;;26.73;;
21243;SDS011;10780;50.942;4.028;2022-11-20T06:49:05;71.55;;;28.25;;
21243;SDS011;10780;50.942;4.028;2022-11-20T06:51:30;65.05;;;24.90;;
21243;SDS011;10780;50.942;4.028;2022-11-20T06:53:56;65.03;;;28.23;;
21243;SDS011;10780;50.942;4.028;2022-11-20T06:56:22;64.35;;;26.65;;
21243;SDS011;10780;50.942;4.028;2022-11-20T06:58:47;64.82;;;26.48;;
21243;SDS011;10780;50.942;4.028;2022-11-20T07:01:14;66.97;;;26.17;;
21243;SDS011;10780;50.942;4.028;2022-11-20T07:03:40;65.15;;;27.88;;
21243;SDS011;10780;50.942;4.028;2022-11-20T07:06:06;61.03;;;26.13;;
21243;SDS011;10780;50.942;4.028;2022-11-20T07:08:32;57.30;;;26.35;;
21243;SDS011;10780;50.942;4.028;2022-11-20T07:10:59;59.33;;;26.38;;
21243;SDS011;10780;50.942;4.028;2022-11-20T07:13:27;59.85;;;25.67;;
21243;SDS011;10780;50.942;4.028;2022-11-20T07:15:53;56.70;;;24.33;;
21243;SDS011;10780;50.942;4.028;2022-11-20T07:18:19;54.15;;;24.55;;
21243;SDS011;10780;50.942;4.028;2022-11-20T07:20:44;60.92;;;26.30;;
21243;SDS011;10780;50.942;4.028;2022-11-20T07:23:10;60.28;;;26.38;;
21243;SDS011;10780;50.942;4.028;2022-11-20T07:25:36;57.88;;;25.33;;
21243;SDS011;10780;50.942;4.028;2022-11-20T07:28:01;57.70;;;24.85;;
21243;SDS011;10780;50.942;4.028;2022-11-20T07:30:28;60.53;;;25.42;;
21243;SDS011;10780;50.942;4.028;2022-11-20T07:32:54;56.38;;;25.45;;
21243;SDS011;10780;50.942;4.028;2022-11-20T07:35:21;59.42;;;25.65;;
21243;SDS011;10780;50.942;4.028;2022-11-20T07:37:47;53.53;;;24.00;;
21243;SDS011;10780;50.942;4.028;2022-11-20T07:40:13;54.17;;;23.92;;
21243;SDS011;10780;50.942;4.028;2022-11-20T07:42:46;56.88;;;24.63;;
21243;SDS011;10780;50.942;4.028;2022-11-20T07:45:16;53.10;;;23.85;;
21243;SDS011;10780;50.942;4.028;2022-11-20T07:47:42;50.95;;;23.08;;
21243;SDS011;10780;50.942;4.028;2022-11-20T07:50:08;52.72;;;23.52;;
21243;SDS011;10780;50.942;4.028;2022-11-20T07:52:33;52.08;;;24.00;;
21243;SDS011;10780;50.942;4.028;2022-11-20T07:54:59;45.50;;;22.02;;
21243;SDS011;10780;50.942;4.028;2022-11-20T07:57:25;49.92;;;21.88;;
21243;SDS011;10780;50.942;4.028;2022-11-20T07:59:50;53.03;;;23.15;;
21243;SDS011;10780;50.942;4.028;2022-11-20T08:02:16;49.67;;;21.88;;
21243;SDS011;10780;50.942;4.028;2022-11-20T08:04:42;51.65;;;22.05;;
21243;SDS011;10780;50.942;4.028;2022-11-20T08:07:07;48.35;;;22.73;;
21243;SDS011;10780;50.942;4.028;2022-11-20T08:09:33;51.08;;;22.92;;
21243;SDS011;10780;50.942;4.028;2022-11-20T08:11:58;50.80;;;23.10;;
21243;SDS011;10780;50.942;4.028;2022-11-20T08:14:42;50.85;;;23.27;;
21243;SDS011;10780;50.942;4.028;2022-11-20T08:17:08;53.38;;;22.58;;
21243;SDS011;10780;50.942;4.028;2022-11-20T08:19:33;47.08;;;21.48;;
21243;SDS011;10780;50.942;4.028;2022-11-20T08:21:59;48.90;;;20.75;;
21243;SDS011;10780;50.942;4.028;2022-11-20T08:24:25;47.08;;;21.58;;
21243;SDS011;10780;50.942;4.028;2022-11-20T08:26:51;49.95;;;20.83;;
21243;SDS011;10780;50.942;4.028;2022-11-20T08:29:17;53.17;;;21.35;;
21243;SDS011;10780;50.942;4.028;2022-11-20T08:31:42;50.88;;;20.67;;
21243;SDS011;10780;50.942;4.028;2022-11-20T08:34:08;49.15;;;21.45;;
21243;SDS011;10780;50.942;4.028;2022-11-20T08:36:34;49.38;;;20.33;;
21243;SDS011;10780;50.942;4.028;2022-11-20T08:39:00;48.50;;;21.83;;
21243;SDS011;10780;50.942;4.028;2022-11-20T08:41:26;45.58;;;21.00;;
21243;SDS011;10780;50.942;4.028;2022-11-20T08:43:56;46.28;;;21.60;;
21243;SDS011;10780;50.942;4.028;2022-11-20T08:46:24;45.70;;;20.23;;
21243;SDS011;10780;50.942;4.028;2022-11-20T08:48:51;46.35;;;19.75;;
21243;SDS011;10780;50.942;4.028;2022-11-20T08:51:17;43.90;;;20.70;;
21243;SDS011;10780;50.942;4.028;2022-11-20T08:53:44;47.55;;;21.10;;
21243;SDS011;10780;50.942;4.028;2022-11-20T08:56:09;46.63;;;21.38;;
21243;SDS011;10780;50.942;4.028;2022-11-20T08:58:36;50.75;;;21.98;;
21243;SDS011;10780;50.942;4.028;2022-11-20T09:01:02;44.97;;;19.92;;
21243;SDS011;10780;50.942;4.028;2022-11-20T09:03:28;40.47;;;20.13;;
21243;SDS011;10780;50.942;4.028;2022-11-20T09:06:00;45.72;;;20.30;;
21243;SDS011;10780;50.942;4.028;2022-11-20T09:08:27;42.92;;;19.48;;
21243;SDS011;10780;50.942;4.028;2022-11-20T09:10:54;43.78;;;19.70;;
21243;SDS011;10780;50.942;4.028;2022-11-20T09:13:21;44.20;;;19.77;;
21243;SDS011;10780;50.942;4.028;2022-11-20T09:15:51;42.53;;;20.63;;
21243;SDS011;10780;50.942;4.028;2022-11-20T09:18:18;47.78;;;20.75;;
21243;SDS011;10780;50.942;4.028;2022-11-20T09:20:44;44.50;;;20.27;;
21243;SDS011;10780;50.942;4.028;2022-11-20T09:23:09;44.95;;;20.05;;
21243;SDS011;10780;50.942;4.028;2022-11-20T09:25:35;38.40;;;19.65;;
21243;SDS011;10780;50.942;4.028;2022-11-20T09:28:01;47.72;;;20.85;;
21243;SDS011;10780;50.942;4.028;2022-11-20T09:30:26;44.17;;;21.10;;
21243;SDS011;10780;50.942;4.028;2022-11-20T09:32:52;39.38;;;19.08;;
21243;SDS011;10780;50.942;4.028;2022-11-20T09:35:18;41.53;;;19.20;;
21243;SDS011;10780;50.942;4.028;2022-11-20T09:37:44;38.15;;;18.67;;
21243;SDS011;10780;50.942;4.028;2022-11-20T09:40:17;35.88;;;18.48;;
21243;SDS011;10780;50.942;4.028;2022-11-20T09:42:57;35.45;;;17.67;;
21243;SDS011;10780;50.942;4.028;2022-11-20T09:48:41;31.42;;;16.05;;
21243;SDS011;10780;50.942;4.028;2022-11-20T09:57:03;29.10;;;15.30;;
21243;SDS011;10780;50.942;4.028;2022-11-20T09:59:53;27.88;;;15.32;;
21243;SDS011;10780;50.942;4.028;2022-11-20T10:07:37;29.55;;;14.68;;
21243;SDS011;10780;50.942;4.028;2022-11-20T10:15:57;22.58;;;12.68;;
21243;SDS011;10780;50.942;4.028;2022-11-20T10:18:36;23.05;;;12.50;;
21243;SDS011;10780;50.942;4.028;2022-11-20T10:26:58;20.75;;;11.27;;
21243;SDS011;10780;50.942;4.028;2022-11-20T10:29:47;20.60;;;10.73;;
21243;SDS011;10780;50.942;4.028;2022-11-20T10:32:36;18.70;;;9.38;;
21243;SDS011;10780;50.942;4.028;2022-11-20T10:35:07;17.58;;;9.35;;
21243;SDS011;10780;50.942;4.028;2022-11-20T10:37:43;16.17;;;9.18;;
21243;SDS011;10780;50.942;4.028;2022-11-20T10:42:53;12.90;;;7.65;;
21243;SDS011;10780;50.942;4.028;2022-11-20T10:47:50;12.48;;;7.18;;
21243;SDS011;10780;50.942;4.028;2022-11-20T10:50:20;11.88;;;6.80;;
21243;SDS011;10780;50.942;4.028;2022-11-20T10:58:10;7.80;;;5.50;;
21243;SDS011;10780;50.942;4.028;2022-11-20T11:01:04;9.73;;;5.63;;
21243;SDS011;10780;50.942;4.028;2022-11-20T11:03:38;7.50;;;5.60;;
21243;SDS011;10780;50.942;4.028;2022-11-20T11:06:08;7.13;;;4.90;;
21243;SDS011;10780;50.942;4.028;2022-11-20T11:08:42;8.30;;;4.80;;
21243;SDS011;10780;50.942;4.028;2022-11-20T11:11:20;7.60;;;5.22;;
21243;SDS011;10780;50.942;4.028;2022-11-20T11:13:50;8.10;;;4.40;;
21243;SDS011;10780;50.942;4.028;2022-11-20T11:16:23;7.95;;;4.50;;
21243;SDS011;10780;50.942;4.028;2022-11-20T11:18:50;8.95;;;4.53;;
21243;SDS011;10780;50.942;4.028;2022-11-20T11:21:25;8.73;;;4.03;;
21243;SDS011;10780;50.942;4.028;2022-11-20T11:24:04;8.52;;;4.68;;
21243;SDS011;10780;50.942;4.028;2022-11-20T11:26:30;7.80;;;4.40;;
21243;SDS011;10780;50.942;4.028;2022-11-20T11:28:56;6.65;;;4.15;;
21243;SDS011;10780;50.942;4.028;2022-11-20T11:31:24;11.40;;;4.75;;
21243;SDS011;10780;50.942;4.028;2022-11-20T11:34:03;8.32;;;4.72;;
21243;SDS011;10780;50.942;4.028;2022-11-20T11:36:30;7.38;;;3.85;;
21243;SDS011;10780;50.942;4.028;2022-11-20T11:38:58;7.35;;;3.47;;
21243;SDS011;10780;50.942;4.028;2022-11-20T11:41:28;6.20;;;3.83;;
21243;SDS011;10780;50.942;4.028;2022-11-20T11:44:00;5.28;;;3.60;;
21243;SDS011;10780;50.942;4.028;2022-11-20T11:46:57;5.88;;;3.55;;
21243;SDS011;10780;50.942;4.028;2022-11-20T11:49:23;5.90;;;3.65;;
21243;SDS011;10780;50.942;4.028;2022-11-20T11:54:24;5.95;;;3.35;;
21243;SDS011;10780;50.942;4.028;2022-11-20T11:56:55;6.07;;;3.42;;
21243;SDS011;10780;50.942;4.028;2022-11-20T11:59:31;8.45;;;3.53;;
21243;SDS011;10780;50.942;4.028;2022-11-20T12:05:14;7.70;;;3.33;;
21243;SDS011;10780;50.942;4.028;2022-11-20T12:08:11;7.45;;;3.67;;
21243;SDS011;10780;50.942;4.028;2022-11-20T12:11:02;8.35;;;3.70;;
21243;SDS011;10780;50.942;4.028;2022-11-20T12:13:53;7.28;;;3.75;;
21243;SDS011;10780;50.942;4.028;2022-11-20T12:16:23;8.40;;;3.58;;
21243;SDS011;10780;50.942;4.028;2022-11-20T12:18:51;12.50;;;3.67;;
21243;SDS011;10780;50.942;4.028;2022-11-20T12:40:52;5.90;;;3.85;;
21243;SDS011;10780;50.942;4.028;2022-11-20T12:43:37;8.00;;;4.10;;
21243;SDS011;10780;50.942;4.028;2022-11-20T12:47:10;10.05;;;4.55;;
21243;SDS011;10780;50.942;4.028;2022-11-20T12:49:56;6.20;;;4.05;;
21243;SDS011;10780;50.942;4.028;2022-11-20T12:52:46;7.10;;;4.18;;
21243;SDS011;10780;50.942;4.028;2022-11-20T12:55:23;5.75;;;4.60;;
21243;SDS011;10780;50.942;4.028;2022-11-20T12:57:54;8.65;;;4.28;;
21243;SDS011;10780;50.942;4.028;2022-11-20T13:00:27;7.30;;;4.00;;
21243;SDS011;10780;50.942;4.028;2022-11-20T13:05:55;5.45;;;3.70;;
21243;SDS011;10780;50.942;4.028;2022-11-20T13:08:29;6.38;;;4.22;;
21243;SDS011;10780;50.942;4.028;2022-11-20T13:13:31;5.65;;;3.60;;
21243;SDS011;10780;50.942;4.028;2022-11-20T13:16:07;7.88;;;4.30;;
21243;SDS011;10780;50.942;4.028;2022-11-20T13:18:40;4.35;;;3.45;;
21243;SDS011;10780;50.942;4.028;2022-11-20T13:21:17;4.90;;;3.60;;
21243;SDS011;10780;50.942;4.028;2022-11-20T13:23:45;3.92;;;2.78;;
21243;SDS011;10780;50.942;4.028;2022-11-20T13:26:20;4.43;;;3.15;;
21243;SDS011;10780;50.942;4.028;2022-11-20T13:28:59;4.70;;;3.05;;
21243;SDS011;10780;50.942;4.028;2022-11-20T13:31:36;3.45;;;2.83;;
21243;SDS011;10780;50.942;4.028;2022-11-20T13:34:10;4.97;;;3.38;;
21243;SDS011;10780;50.942;4.028;2022-11-20T13:36:48;3.30;;;2.72;;
21243;SDS011;10780;50.942;4.028;2022-11-20T13:39:35;3.88;;;2.83;;
21243;SDS011;10780;50.942;4.028;2022-11-20T13:44:42;3.88;;;2.90;;
21243;SDS011;10780;50.942;4.028;2022-11-20T13:47:22;4.15;;;3.33;;
21243;SDS011;10780;50.942;4.028;2022-11-20T13:49:51;3.75;;;3.38;;
21243;SDS011;10780;50.942;4.028;2022-11-20T13:58:12;3.33;;;2.95;;
21243;SDS011;10780;50.942;4.028;2022-11-20T14:01:00;4.68;;;3.67;;
21243;SDS011;10780;50.942;4.028;2022-11-20T14:03:33;4.05;;;3.28;;
21243;SDS011;10780;50.942;4.028;2022-11-20T14:06:03;3.47;;;3.05;;
21243;SDS011;10780;50.942;4.028;2022-11-20T14:08:33;4.22;;;2.97;;
21243;SDS011;10780;50.942;4.028;2022-11-20T14:13:29;3.55;;;3.25;;
21243;SDS011;10780;50.942;4.028;2022-11-20T14:15:58;4.07;;;3.40;;
21243;SDS011;10780;50.942;4.028;2022-11-20T14:18:25;4.57;;;3.22;;
21243;SDS011;10780;50.942;4.028;2022-11-20T14:20:52;4.32;;;3.72;;
21243;SDS011;10780;50.942;4.028;2022-11-20T14:23:27;5.47;;;4.40;;
21243;SDS011;10780;50.942;4.028;2022-11-20T14:25:54;4.45;;;4.00;;
21243;SDS011;10780;50.942;4.028;2022-11-20T14:28:27;4.70;;;4.20;;
21243;SDS011;10780;50.942;4.028;2022-11-20T14:30:54;4.90;;;4.50;;
21243;SDS011;10780;50.942;4.028;2022-11-20T14:33:21;4.88;;;4.30;;
21243;SDS011;10780;50.942;4.028;2022-11-20T14:35:53;5.03;;;4.50;;
21243;SDS011;10780;50.942;4.028;2022-11-20T14:38:24;6.97;;;4.25;;
21243;SDS011;10780;50.942;4.028;2022-11-20T14:40:53;4.30;;;3.90;;
21243;SDS011;10780;50.942;4.028;2022-11-20T14:43:25;5.95;;;4.22;;
21243;SDS011;10780;50.942;4.028;2022-11-20T14:45:57;5.38;;;4.70;;
21243;SDS011;10780;50.942;4.028;2022-11-20T14:48:28;5.97;;;4.55;;
21243;SDS011;10780;50.942;4.028;2022-11-20T14:51:08;6.85;;;5.05;;
21243;SDS011;10780;50.942;4.028;2022-11-20T14:53:48;6.57;;;5.28;;
21243;SDS011;10780;50.942;4.028;2022-11-20T14:56:14;6.13;;;4.70;;
21243;SDS011;10780;50.942;4.028;2022-11-20T14:58:55;5.60;;;4.82;;
21243;SDS011;10780;50.942;4.028;2022-11-20T15:01:28;7.82;;;4.93;;
21243;SDS011;10780;50.942;4.028;2022-11-20T15:06:34;8.25;;;5.65;;
21243;SDS011;10780;50.942;4.028;2022-11-20T15:09:02;7.63;;;5.15;;
21243;SDS011;10780;50.942;4.028;2022-11-20T15:11:30;7.20;;;5.80;;
21243;SDS011;10780;50.942;4.028;2022-11-20T15:14:01;8.23;;;5.95;;
21243;SDS011;10780;50.942;4.028;2022-11-20T15:16:29;8.05;;;6.00;;
21243;SDS011;10780;50.942;4.028;2022-11-20T15:18:55;8.32;;;7.20;;
21243;SDS011;10780;50.942;4.028;2022-11-20T15:21:21;9.50;;;6.63;;
21243;SDS011;10780;50.942;4.028;2022-11-20T15:23:47;13.30;;;7.97;;
21243;SDS011;10780;50.942;4.028;2022-11-20T15:26:14;8.05;;;6.68;;
21243;SDS011;10780;50.942;4.028;2022-11-20T15:28:51;5.60;;;5.00;;
21243;SDS011;10780;50.942;4.028;2022-11-20T15:31:18;10.60;;;4.85;;
21243;SDS011;10780;50.942;4.028;2022-11-20T15:33:46;11.40;;;4.22;;
21243;SDS011;10780;50.942;4.028;2022-11-20T15:36:11;9.40;;;4.00;;
21243;SDS011;10780;50.942;4.028;2022-11-20T15:38:37;6.95;;;4.28;;
21243;SDS011;10780;50.942;4.028;2022-11-20T15:41:03;14.23;;;4.38;;
21243;SDS011;10780;50.942;4.028;2022-11-20T15:43:29;8.80;;;4.22;;
21243;SDS011;10780;50.942;4.028;2022-11-20T15:46:55;11.73;;;3.97;;
21243;SDS011;10780;50.942;4.028;2022-11-20T15:48:53;10.73;;;4.03;;
21243;SDS011;10780;50.942;4.028;2022-11-20T15:53:57;8.32;;;3.70;;
21243;SDS011;10780;50.942;4.028;2022-11-20T15:56:23;9.95;;;3.45;;
21243;SDS011;10780;50.942;4.028;2022-11-20T15:58:49;8.63;;;2.92;;
21243;SDS011;10780;50.942;4.028;2022-11-20T16:01:15;10.40;;;3.22;;
21243;SDS011;10780;50.942;4.028;2022-11-20T16:03:43;12.50;;;3.72;;
21243;SDS011;10780;50.942;4.028;2022-11-20T16:06:09;9.45;;;3.20;;
21243;SDS011;10780;50.942;4.028;2022-11-20T16:08:34;14.02;;;4.05;;
21243;SDS011;10780;50.942;4.028;2022-11-20T16:11:00;11.43;;;4.70;;
21243;SDS011;10780;50.942;4.028;2022-11-20T16:13:26;14.80;;;4.25;;